createdAt,value
2018-10-02T00:01:08.223Z,7.60
2018-10-02T00:03:35.531Z,7.65
2018-10-02T00:06:02.527Z,7.56
2018-10-02T00:08:29.507Z,7.56
2018-10-02T00:11:02.153Z,7.53
2018-10-02T00:13:35.047Z,7.57
2018-10-02T00:16:02.419Z,7.57
2018-10-02T00:18:29.440Z,7.58
2018-10-02T00:20:56.404Z,7.48
2018-10-02T00:23:23.396Z,7.57
2018-10-02T00:25:50.364Z,7.47
2018-10-02T00:28:17.361Z,7.46
2018-10-02T00:30:44.423Z,7.50
2018-10-02T00:33:11.407Z,7.48
2018-10-02T00:35:39.003Z,7.43
2018-10-02T00:38:06.080Z,7.43
2018-10-02T00:40:33.132Z,7.30
2018-10-02T00:43:01.067Z,7.30
2018-10-02T00:45:30.949Z,7.28
2018-10-02T00:47:58.024Z,7.25
2018-10-02T00:50:25.648Z,7.14
2018-10-02T00:52:52.956Z,7.18
2018-10-02T00:55:20.022Z,7.14
2018-10-02T00:57:47.003Z,7.20
2018-10-02T01:00:14.031Z,7.09
2018-10-02T01:02:41.003Z,7.00
2018-10-02T01:05:08.043Z,7.09
2018-10-02T01:07:35.032Z,7.01
2018-10-02T01:10:02.013Z,7.04
2018-10-02T01:12:29.088Z,7.11
2018-10-02T01:14:56.124Z,7.05
2018-10-02T01:17:23.255Z,6.99
2018-10-02T01:19:50.303Z,7.12
2018-10-02T01:22:17.371Z,7.12
2018-10-02T01:24:51.240Z,7.25
2018-10-02T01:27:18.216Z,7.29
2018-10-02T01:29:45.227Z,7.29
2018-10-02T01:32:12.219Z,7.44
2018-10-02T01:34:39.271Z,7.32
2018-10-02T01:37:06.335Z,7.32
2018-10-02T01:39:33.794Z,7.29
2018-10-02T01:42:00.759Z,7.22
2018-10-02T01:44:27.721Z,7.22
2018-10-02T01:46:54.851Z,7.22
2018-10-02T01:49:21.822Z,7.27
2018-10-02T01:51:48.799Z,7.30
2018-10-02T01:54:15.967Z,7.07
2018-10-02T01:56:42.964Z,7.04
2018-10-02T01:59:10.040Z,7.00
2018-10-02T02:01:37.084Z,6.87
2018-10-02T02:04:04.070Z,7.07
2018-10-02T02:06:31.079Z,6.99
2018-10-02T02:08:58.084Z,7.02
2018-10-02T02:11:25.207Z,7.01
2018-10-02T02:13:52.185Z,6.95
2018-10-02T02:16:19.420Z,6.99
2018-10-02T02:18:46.396Z,6.97
2018-10-02T02:21:13.359Z,6.97
2018-10-02T02:23:40.356Z,6.91
2018-10-02T02:26:07.334Z,6.81
2018-10-02T02:28:34.468Z,6.65
2018-10-02T02:31:01.798Z,6.71
2018-10-02T02:33:28.773Z,6.90
2018-10-02T02:35:55.832Z,6.75
2018-10-02T02:38:23.170Z,6.66
2018-10-02T02:40:50.148Z,6.79
2018-10-02T02:43:17.122Z,6.82
2018-10-02T02:45:44.360Z,6.82
2018-10-02T02:48:17.028Z,6.79
2018-10-02T02:50:49.778Z,6.87
2018-10-02T02:53:17.529Z,6.71
2018-10-02T02:55:44.979Z,6.86
2018-10-02T02:58:11.971Z,6.78
2018-10-02T03:00:39.049Z,6.73
2018-10-02T03:03:06.154Z,6.76
2018-10-02T03:05:33.154Z,6.68
2018-10-02T03:08:00.185Z,6.74
2018-10-02T03:10:27.183Z,6.73
2018-10-02T03:12:54.165Z,6.73
2018-10-02T03:15:21.155Z,6.56
2018-10-02T03:17:48.211Z,6.54
2018-10-02T03:20:15.276Z,6.81
2018-10-02T03:22:42.264Z,6.89
2018-10-02T03:25:09.519Z,6.82
2018-10-02T03:27:36.484Z,6.91
2018-10-02T03:30:03.520Z,6.92
2018-10-02T03:32:30.864Z,6.78
2018-10-02T03:34:57.920Z,6.74
2018-10-02T03:37:24.916Z,6.75
2018-10-02T03:39:51.975Z,6.48
2018-10-02T03:42:19.001Z,6.61
2018-10-02T03:44:45.971Z,6.57
2018-10-02T03:47:12.943Z,6.65
2018-10-02T03:49:40.023Z,6.60
2018-10-02T03:52:07.011Z,6.46
2018-10-02T03:54:34.179Z,6.70
2018-10-02T03:57:01.256Z,6.61
2018-10-02T03:59:28.411Z,6.48
2018-10-02T04:01:55.645Z,6.52
2018-10-02T04:04:22.785Z,6.58
2018-10-02T04:06:49.781Z,6.65
2018-10-02T04:09:16.796Z,6.60
2018-10-02T04:11:43.780Z,6.61
2018-10-02T04:14:10.868Z,6.62
2018-10-02T04:16:38.428Z,6.65
2018-10-02T04:19:05.588Z,6.72
2018-10-02T04:21:34.472Z,6.79
2018-10-02T04:24:02.560Z,6.78
2018-10-02T04:26:29.899Z,6.87
2018-10-02T04:28:56.883Z,6.70
2018-10-02T04:31:24.116Z,6.75
2018-10-02T04:33:51.275Z,6.75
2018-10-02T04:36:18.183Z,6.80
2018-10-02T04:38:45.160Z,6.76
2018-10-02T04:41:12.251Z,6.72
2018-10-02T04:43:39.557Z,6.79
2018-10-02T04:46:06.563Z,6.77
2018-10-02T04:48:33.723Z,6.67
2018-10-02T04:51:01.089Z,6.79
2018-10-02T04:53:28.104Z,6.73
2018-10-02T04:55:55.188Z,6.77
2018-10-02T04:58:22.212Z,6.89
2018-10-02T05:00:49.199Z,6.79
2018-10-02T05:03:16.187Z,6.75
2018-10-02T05:05:43.195Z,6.78
2018-10-02T05:08:10.227Z,6.78
2018-10-02T05:10:37.417Z,6.86
2018-10-02T05:13:04.420Z,6.94
2018-10-02T05:15:31.491Z,6.88
2018-10-02T05:17:58.609Z,6.84
2018-10-02T05:20:25.581Z,6.94
2018-10-02T05:22:52.599Z,6.95
2018-10-02T05:25:19.767Z,7.00
2018-10-02T05:27:46.809Z,7.08
2018-10-02T05:30:13.723Z,6.97
2018-10-02T05:32:40.905Z,7.11
2018-10-02T05:35:07.913Z,7.05
2018-10-02T05:37:34.877Z,7.11
2018-10-02T05:40:02.172Z,7.18
2018-10-02T05:42:29.164Z,7.11
2018-10-02T05:44:56.236Z,7.15
2018-10-02T05:47:23.252Z,7.29
2018-10-02T05:49:50.230Z,7.12
2018-10-02T05:52:17.379Z,7.17
2018-10-02T05:54:44.807Z,7.15
2018-10-02T05:57:11.878Z,7.08
2018-10-02T05:59:38.956Z,7.07
2018-10-02T06:02:06.039Z,7.08
2018-10-02T06:04:33.017Z,7.11
2018-10-02T06:07:00.006Z,7.06
2018-10-02T06:09:27.008Z,7.02
2018-10-02T06:11:54.029Z,7.03
2018-10-02T06:14:21.031Z,6.98
2018-10-02T06:16:48.037Z,6.99
2018-10-02T06:19:15.016Z,6.99
2018-10-02T06:21:42.001Z,6.99
2018-10-02T06:24:09.088Z,7.01
2018-10-02T06:26:36.059Z,7.03
2018-10-02T06:29:03.128Z,6.97
2018-10-02T06:31:30.216Z,6.94
2018-10-02T06:33:57.290Z,8.03
2018-10-02T06:36:24.272Z,7.45
2018-10-02T06:38:51.764Z,7.38
2018-10-02T06:41:18.926Z,7.80
2018-10-02T06:43:45.997Z,7.87
2018-10-02T06:46:12.936Z,7.42
2018-10-02T06:48:40.032Z,7.50
2018-10-02T06:51:07.246Z,8.30
2018-10-02T06:53:34.413Z,7.44
2018-10-02T06:56:01.453Z,7.55
2018-10-02T06:58:28.423Z,7.56
2018-10-02T07:00:55.452Z,7.49
2018-10-02T07:03:22.427Z,7.50
2018-10-02T07:05:49.579Z,8.17
2018-10-02T07:08:16.592Z,7.84
2018-10-02T07:10:43.602Z,8.40
2018-10-02T07:13:10.592Z,7.72
2018-10-02T07:15:37.722Z,7.47
2018-10-02T07:18:04.907Z,7.26
2018-10-02T07:20:32.084Z,7.45
2018-10-02T07:22:59.228Z,7.38
2018-10-02T07:25:26.587Z,7.23
2018-10-02T07:27:53.667Z,7.40
2018-10-02T07:30:20.545Z,7.31
2018-10-02T07:32:47.692Z,7.77
2018-10-02T07:35:14.744Z,7.57
2018-10-02T07:37:41.821Z,7.44
2018-10-02T07:40:08.953Z,7.63
2018-10-02T07:42:36.120Z,7.90
2018-10-02T07:45:03.282Z,7.75
2018-10-02T07:47:30.537Z,7.52
2018-10-02T07:49:57.488Z,7.43
2018-10-02T07:52:24.479Z,7.51
2018-10-02T07:54:51.479Z,7.61
2018-10-02T07:57:18.550Z,7.49
2018-10-02T07:59:46.049Z,7.44
2018-10-02T08:02:12.989Z,7.38
2018-10-02T08:04:40.011Z,7.37
2018-10-02T08:07:07.332Z,7.31
2018-10-02T08:09:34.307Z,7.65
2018-10-02T08:12:01.365Z,7.33
2018-10-02T08:14:28.402Z,7.44
2018-10-02T08:16:55.360Z,7.59
2018-10-02T08:19:22.412Z,7.43
2018-10-02T08:21:49.454Z,7.40
2018-10-02T08:24:16.448Z,7.39
2018-10-02T08:26:43.584Z,7.40
2018-10-02T08:29:10.808Z,7.33
2018-10-02T08:31:37.806Z,7.26
2018-10-02T08:34:04.776Z,7.23
2018-10-02T08:36:31.849Z,7.20
2018-10-02T08:38:59.017Z,7.23
2018-10-02T08:41:26.004Z,7.33
2018-10-02T08:43:53.066Z,7.28
2018-10-02T08:46:20.136Z,7.32
2018-10-02T08:48:47.336Z,7.23
2018-10-02T08:51:14.402Z,7.25
2018-10-02T08:53:41.478Z,7.27
2018-10-02T08:56:08.455Z,7.25
2018-10-02T08:58:35.448Z,7.29
2018-10-02T09:01:02.523Z,7.35
2018-10-02T09:03:29.922Z,7.33
2018-10-02T09:05:56.904Z,7.36
2018-10-02T09:08:23.892Z,7.34
2018-10-02T09:10:51.158Z,7.32
2018-10-02T09:13:18.747Z,7.36
2018-10-02T09:15:45.809Z,7.36
2018-10-02T09:18:12.841Z,7.42
2018-10-02T09:20:40.504Z,7.45
2018-10-02T09:23:07.529Z,7.41
2018-10-02T09:25:34.532Z,7.45
2018-10-02T09:28:01.556Z,7.44
2018-10-02T09:30:34.237Z,7.51
2018-10-02T09:33:07.040Z,7.50
2018-10-02T09:35:39.771Z,7.51
2018-10-02T09:38:12.761Z,7.53
2018-10-02T09:40:45.912Z,7.55
2018-10-02T09:43:19.015Z,7.56
2018-10-02T09:45:46.053Z,7.52
2018-10-02T09:48:14.476Z,7.45
2018-10-02T09:50:41.563Z,7.62
2018-10-02T09:53:08.591Z,7.58
2018-10-02T09:55:35.597Z,7.58
2018-10-02T09:58:03.044Z,7.59
2018-10-02T10:00:35.674Z,7.60
2018-10-02T10:03:02.889Z,7.62
2018-10-02T10:05:29.890Z,7.77
2018-10-02T10:07:56.875Z,7.82
2018-10-02T10:10:23.986Z,7.78
2018-10-02T10:12:51.099Z,7.80
2018-10-02T10:15:18.138Z,7.85
2018-10-02T10:17:45.243Z,7.79
2018-10-02T10:20:12.232Z,7.83
2018-10-02T10:22:39.716Z,7.80
2018-10-02T10:25:06.666Z,7.83
2018-10-02T10:27:33.636Z,7.93
2018-10-02T10:30:00.661Z,7.91
2018-10-02T10:32:27.747Z,7.92
2018-10-02T10:34:55.486Z,7.92
2018-10-02T10:37:22.465Z,7.93
2018-10-02T10:39:49.496Z,8.00
2018-10-02T10:42:16.420Z,7.98
2018-10-02T10:44:43.810Z,7.95
2018-10-02T10:47:10.872Z,7.96
2018-10-02T10:49:37.831Z,7.93
2018-10-02T10:52:04.824Z,8.05
2018-10-02T10:54:31.947Z,8.02
2018-10-02T10:56:59.135Z,8.04
2018-10-02T10:59:26.301Z,8.09
2018-10-02T11:01:53.347Z,8.06
2018-10-02T11:04:20.924Z,8.12
2018-10-02T11:06:47.889Z,8.13
2018-10-02T11:09:14.893Z,8.15
2018-10-02T11:11:41.848Z,8.17
2018-10-02T11:14:09.383Z,8.17
2018-10-02T11:16:36.385Z,8.22
2018-10-02T11:19:03.400Z,8.24
2018-10-02T11:21:30.540Z,8.29
2018-10-02T11:23:57.560Z,8.25
2018-10-02T11:26:24.656Z,8.30
2018-10-02T11:28:51.784Z,8.33
2018-10-02T11:31:19.442Z,8.32
2018-10-02T11:33:46.380Z,8.37
2018-10-02T11:36:13.615Z,8.37
2018-10-02T11:38:40.588Z,8.39
2018-10-02T11:41:07.574Z,8.39
2018-10-02T11:43:34.710Z,8.40
2018-10-02T11:46:01.655Z,8.42
2018-10-02T11:48:28.647Z,8.43
2018-10-02T11:50:55.852Z,8.47
2018-10-02T11:53:22.893Z,8.47
2018-10-02T11:55:50.182Z,8.51
2018-10-02T11:58:17.804Z,8.51
2018-10-02T12:00:44.852Z,8.58
2018-10-02T12:03:11.987Z,8.56
2018-10-02T12:05:39.103Z,8.57
2018-10-02T12:08:06.243Z,8.58
2018-10-02T12:10:33.332Z,8.63
2018-10-02T12:13:00.439Z,8.65
2018-10-02T12:15:27.366Z,8.70
2018-10-02T12:17:54.380Z,8.75
2018-10-02T12:20:21.463Z,8.77
2018-10-02T12:22:48.516Z,8.81
2018-10-02T12:25:15.804Z,8.83
2018-10-02T12:27:42.956Z,8.84
2018-10-02T12:30:10.031Z,8.90
2018-10-02T12:32:37.143Z,8.91
2018-10-02T12:35:04.174Z,8.96
2018-10-02T12:37:31.249Z,8.99
2018-10-02T12:39:58.281Z,9.03
2018-10-02T12:42:25.262Z,9.08
2018-10-02T12:44:52.243Z,9.12
2018-10-02T12:47:19.323Z,9.18
2018-10-02T12:49:46.301Z,9.22
2018-10-02T12:52:13.447Z,9.31
2018-10-02T12:54:40.488Z,9.35
2018-10-02T12:57:07.465Z,9.36
2018-10-02T12:59:34.477Z,9.37
2018-10-02T13:02:01.480Z,9.46
2018-10-02T13:04:28.485Z,9.47
2018-10-02T13:06:55.901Z,9.53
2018-10-02T13:09:22.953Z,9.58
2018-10-02T13:11:49.934Z,9.61
2018-10-02T13:14:17.015Z,9.62
2018-10-02T13:16:44.402Z,9.63
2018-10-02T13:19:11.323Z,9.67
2018-10-02T13:21:38.402Z,9.72
2018-10-02T13:24:06.161Z,9.74
2018-10-02T13:26:33.241Z,9.75
2018-10-02T13:29:00.204Z,9.81
2018-10-02T13:31:27.335Z,9.84
2018-10-02T13:33:54.411Z,9.87
2018-10-02T13:36:21.414Z,9.90
2018-10-02T13:38:48.395Z,10.00
2018-10-02T13:41:16.013Z,9.99
2018-10-02T13:43:43.180Z,10.02
2018-10-02T13:46:10.571Z,10.07
2018-10-02T13:48:37.586Z,10.04
2018-10-02T13:51:04.686Z,10.10
2018-10-02T13:53:31.681Z,10.17
2018-10-02T13:55:58.892Z,10.18
2018-10-02T13:58:25.896Z,10.20
2018-10-02T14:00:52.879Z,10.35
2018-10-02T14:03:19.967Z,10.35
2018-10-02T14:05:46.932Z,10.36
2018-10-02T14:08:14.005Z,10.43
2018-10-02T14:10:41.381Z,10.53
2018-10-02T14:13:08.836Z,10.52
2018-10-02T14:15:35.986Z,10.57
2018-10-02T14:18:03.233Z,10.63
2018-10-02T14:20:30.247Z,10.66
2018-10-02T14:22:57.840Z,10.71
2018-10-02T14:25:25.052Z,10.74
2018-10-02T14:27:52.094Z,10.78
2018-10-02T14:30:19.603Z,10.83
2018-10-02T14:32:46.743Z,10.88
2018-10-02T14:35:20.557Z,10.87
2018-10-02T14:37:47.529Z,10.90
2018-10-02T14:40:14.524Z,10.94
2018-10-02T14:42:41.640Z,10.99
2018-10-02T14:45:08.848Z,10.98
2018-10-02T14:47:35.852Z,10.95
2018-10-02T14:50:03.251Z,11.00
2018-10-02T14:52:30.248Z,11.14
2018-10-02T14:54:57.317Z,11.41
2018-10-02T14:57:24.326Z,11.26
2018-10-02T14:59:51.545Z,11.19
2018-10-02T15:02:18.544Z,11.12
2018-10-02T15:04:45.872Z,11.12
2018-10-02T15:07:12.900Z,11.18
2018-10-02T15:09:40.055Z,11.28
2018-10-02T15:12:07.150Z,11.28
2018-10-02T15:17:58.263Z,11.33
2018-10-02T15:20:25.239Z,11.29
2018-10-02T15:22:52.211Z,11.28
2018-10-02T15:25:19.266Z,11.35
2018-10-02T15:27:46.343Z,11.41
2018-10-02T15:30:13.343Z,11.29
2018-10-02T15:32:40.505Z,11.15
2018-10-02T15:35:07.506Z,11.13
2018-10-02T15:37:34.588Z,11.04
2018-10-02T15:40:01.702Z,11.04
2018-10-02T15:42:28.692Z,11.05
2018-10-02T15:44:55.758Z,10.94
2018-10-02T15:47:22.832Z,10.97
2018-10-02T15:49:49.796Z,10.97
2018-10-02T15:52:16.764Z,10.98
2018-10-02T15:54:44.131Z,10.89
2018-10-02T15:57:11.222Z,10.99
2018-10-02T15:59:38.305Z,10.89
2018-10-02T16:02:06.088Z,10.81
2018-10-02T16:05:03.131Z,10.79
2018-10-02T16:07:30.629Z,10.76
2018-10-02T16:09:57.611Z,10.69
2018-10-02T16:12:24.605Z,10.67
2018-10-02T16:14:51.624Z,10.66
2018-10-02T16:17:18.629Z,10.69
2018-10-02T16:19:45.924Z,10.69
2018-10-02T16:22:13.343Z,10.69
2018-10-02T16:24:40.318Z,10.72
2018-10-02T16:27:07.353Z,10.72
2018-10-02T16:29:34.589Z,10.69
2018-10-02T16:32:01.659Z,10.73
2018-10-02T16:34:28.814Z,10.77
2018-10-02T16:36:55.820Z,10.92
2018-10-02T16:39:22.900Z,10.74
2018-10-02T16:41:49.897Z,10.68
2018-10-02T16:44:17.488Z,10.68
2018-10-02T16:46:44.548Z,10.62
2018-10-02T16:49:11.656Z,10.53
2018-10-02T16:51:38.768Z,10.59
2018-10-02T16:54:06.204Z,10.59
2018-10-02T16:56:33.188Z,10.53
2018-10-02T16:59:00.167Z,10.47
2018-10-02T17:01:27.296Z,10.48
2018-10-02T17:03:54.279Z,10.47
2018-10-02T17:06:21.269Z,10.47
2018-10-02T17:08:48.525Z,10.45
2018-10-02T17:11:16.180Z,10.41
2018-10-02T17:13:43.184Z,10.36
2018-10-02T17:16:10.200Z,10.33
2018-10-02T17:18:37.628Z,10.30
2018-10-02T17:21:04.936Z,10.26
2018-10-02T17:23:31.929Z,10.28
2018-10-02T17:25:59.097Z,10.27
2018-10-02T17:28:26.188Z,10.25
2018-10-02T17:30:53.270Z,10.23
2018-10-02T17:33:20.517Z,10.30
2018-10-02T17:35:47.600Z,10.29
2018-10-02T17:38:14.631Z,10.34
2018-10-02T17:40:41.919Z,10.32
2018-10-02T17:43:08.977Z,10.63
2018-10-02T17:45:36.263Z,10.52
2018-10-02T17:48:03.263Z,10.46
2018-10-02T17:50:30.255Z,10.44
2018-10-02T17:52:57.247Z,10.28
2018-10-02T17:55:24.503Z,10.29
2018-10-02T17:57:51.617Z,10.21
2018-10-02T18:00:19.035Z,10.20
2018-10-02T18:02:46.191Z,10.20
2018-10-02T18:05:13.169Z,10.16
2018-10-02T18:07:40.721Z,10.16
2018-10-02T18:10:08.130Z,10.24
2018-10-02T18:12:35.190Z,10.27
2018-10-02T18:15:02.585Z,10.15
2018-10-02T18:17:29.672Z,10.12
2018-10-02T18:19:56.754Z,10.06
2018-10-02T18:22:23.732Z,10.08
2018-10-02T18:24:51.008Z,10.13
2018-10-02T18:27:18.048Z,10.09
2018-10-02T18:29:45.233Z,10.11
2018-10-02T18:32:12.227Z,10.14
2018-10-02T18:34:39.255Z,10.17
2018-10-02T18:37:06.292Z,10.21
2018-10-02T18:39:33.279Z,10.13
2018-10-02T18:42:00.269Z,10.20
2018-10-02T18:44:27.319Z,10.19
2018-10-02T18:46:54.462Z,10.19
2018-10-02T18:49:21.636Z,10.24
2018-10-02T18:51:48.664Z,10.30
2018-10-02T18:54:15.707Z,10.34
2018-10-02T18:56:42.831Z,10.41
2018-10-02T18:59:09.774Z,10.06
2018-10-02T19:01:37.028Z,9.88
2018-10-02T19:04:04.231Z,9.71
2018-10-02T19:06:31.204Z,9.49
2018-10-02T19:09:04.471Z,9.45
2018-10-02T19:11:37.085Z,9.32
2018-10-02T19:14:04.068Z,9.32
2018-10-02T19:16:33.751Z,9.35
2018-10-02T19:19:00.806Z,9.31
2018-10-02T19:21:28.738Z,9.32
2018-10-02T19:23:55.766Z,9.27
2018-10-02T19:26:24.544Z,9.39
2018-10-02T19:28:51.551Z,9.36
2018-10-02T19:31:24.464Z,9.41
2018-10-02T19:33:51.595Z,9.39
2018-10-02T19:36:18.675Z,9.42
2018-10-02T19:38:52.822Z,9.38
2018-10-02T19:41:19.811Z,9.34
2018-10-02T19:43:46.844Z,9.47
2018-10-02T19:46:21.716Z,9.64
2018-10-02T19:48:48.889Z,9.65
2018-10-02T19:51:21.968Z,9.45
2018-10-02T19:53:49.207Z,9.45
2018-10-02T19:56:16.280Z,9.40
2018-10-02T19:58:43.555Z,9.46
2018-10-02T20:01:10.580Z,9.47
2018-10-02T20:03:37.681Z,9.49
2018-10-02T20:06:06.082Z,9.56
2018-10-02T20:08:33.086Z,9.49
2018-10-02T20:11:00.725Z,9.43
2018-10-02T20:13:27.778Z,9.45
2018-10-02T20:15:54.879Z,9.45
2018-10-02T20:18:21.879Z,9.38
2018-10-02T20:20:48.997Z,9.41
2018-10-02T20:23:15.990Z,9.45
2018-10-02T20:25:43.321Z,9.49
2018-10-02T20:28:10.490Z,9.46
2018-10-02T20:30:37.501Z,9.52
2018-10-02T20:33:04.534Z,9.50
2018-10-02T20:35:31.753Z,9.61
2018-10-02T20:37:58.829Z,9.60
2018-10-02T20:40:25.988Z,9.59
2018-10-02T20:42:53.041Z,9.75
2018-10-02T20:45:20.589Z,9.84
2018-10-02T20:47:47.871Z,9.99
2018-10-02T20:50:14.952Z,9.63
2018-10-02T20:52:42.113Z,9.56
2018-10-02T20:55:09.181Z,9.57
2018-10-02T20:57:36.919Z,9.35
2018-10-02T21:00:04.028Z,9.32
2018-10-02T21:02:31.233Z,9.30
2018-10-02T21:04:58.219Z,9.21
2018-10-02T21:07:25.465Z,9.17
2018-10-02T21:09:52.449Z,9.13
2018-10-02T21:12:19.579Z,9.13
2018-10-02T21:14:46.983Z,9.13
2018-10-02T21:17:14.157Z,9.10
2018-10-02T21:19:41.131Z,9.01
2018-10-02T21:22:08.237Z,8.97
2018-10-02T21:24:35.376Z,8.92
2018-10-02T21:27:02.409Z,8.89
2018-10-02T21:29:29.785Z,8.83
2018-10-02T21:31:56.871Z,8.79
2018-10-02T21:34:24.083Z,8.74
2018-10-02T21:36:51.173Z,8.76
2018-10-02T21:39:18.168Z,8.83
2018-10-02T21:41:45.155Z,8.87
2018-10-02T21:44:12.236Z,8.79
2018-10-02T21:46:39.236Z,8.81
2018-10-02T21:49:06.332Z,9.07
2018-10-02T21:51:33.615Z,9.10
2018-10-02T21:54:00.787Z,8.93
2018-10-02T21:56:28.227Z,8.98
2018-10-02T21:58:55.426Z,8.89
2018-10-02T22:01:27.643Z,8.92
2018-10-02T22:03:54.616Z,8.86
2018-10-02T22:06:21.780Z,9.00
2018-10-02T22:08:48.858Z,8.98
2018-10-02T22:11:16.045Z,9.29
2018-10-02T22:13:43.204Z,9.12
2018-10-02T22:16:10.252Z,8.81
2018-10-02T22:18:37.276Z,8.71
2018-10-02T22:21:04.272Z,8.67
2018-10-02T22:23:31.244Z,8.65
2018-10-02T22:25:58.311Z,8.68
2018-10-02T22:28:25.283Z,8.74
2018-10-02T22:30:52.259Z,8.79
2018-10-02T22:33:19.330Z,9.03
2018-10-02T22:35:46.244Z,8.81
2018-10-02T22:38:13.317Z,8.71
2018-10-02T22:40:40.605Z,8.64
2018-10-02T22:43:07.585Z,8.62
2018-10-02T22:45:34.563Z,8.61
2018-10-02T22:48:01.575Z,8.64
2018-10-02T22:50:29.399Z,8.64
2018-10-02T22:52:56.440Z,8.68
2018-10-02T22:55:23.432Z,8.86
2018-10-02T22:57:50.433Z,8.33
2018-10-02T23:00:17.421Z,8.93
2018-10-02T23:02:44.464Z,8.92
2018-10-02T23:05:11.548Z,8.90
2018-10-02T23:07:38.545Z,8.88
2018-10-02T23:10:05.696Z,8.87
2018-10-02T23:12:32.775Z,8.92
2018-10-02T23:15:00.001Z,8.84
2018-10-02T23:17:27.047Z,8.83
2018-10-02T23:19:54.434Z,8.83
2018-10-02T23:22:21.427Z,8.86
2018-10-02T23:24:48.412Z,8.76
2018-10-02T23:27:15.508Z,8.74
2018-10-02T23:29:42.498Z,8.70
2018-10-02T23:32:09.475Z,8.67
2018-10-02T23:34:36.466Z,8.66
2018-10-02T23:37:03.502Z,8.67
2018-10-02T23:39:31.064Z,8.76
2018-10-02T23:41:58.049Z,8.76
2018-10-02T23:44:25.024Z,8.83
2018-10-02T23:46:52.022Z,8.75
2018-10-02T23:49:19.044Z,8.70
2018-10-02T23:51:46.020Z,8.69
2018-10-02T23:54:13.103Z,8.66
2018-10-02T23:56:40.232Z,8.63
2018-10-02T23:59:07.312Z,8.56
